Time;durP1;ratioP1;P1;durP2;ratioP2;P2;SDS_P1;SDS_P2;PMS_P1;PMS_P2;Temp;Humidity;BMP_temperature;BMP_pressure;BME280_temperature;BME280_humidity;BME280_pressure;Samples;Min_cycle;Max_cycle;Signal;HPM_P1;HPM_P2
2024/03/06 00:01:35;;;;;;;;;;;;;;;;;;5093921;28;19908;-71
2024/03/06 00:04:01;;;;;;;;;;;;;;;;;;5093991;28;19915;-71
2024/03/06 00:06:27;;;;;;;;;;;;;;;;;;5093984;28;20023;-71
2024/03/06 00:08:53;;;;;;;;;;;;;;;;;;5093338;28;19920;-71
2024/03/06 00:11:19;;;;;;;;;;;;;;;;;;5093855;28;20036;-71
2024/03/06 00:13:47;;;;;;;;;;;;;;;;;;5093872;28;20002;-71
2024/03/06 00:16:13;;;;;;;;;;;;;;;;;;5093459;28;19908;-71
2024/03/06 00:18:40;;;;;;;;;;;;;;;;;;5092598;28;19916;-71
2024/03/06 00:21:06;;;;;;;;;;;;;;;;;;5092383;28;20293;-71
2024/03/06 00:23:32;;;;;;;;;;;;;;;;;;5093393;28;19909;-70
2024/03/06 00:25:58;;;;;;;;;;;;;;;;;;5093689;28;19915;-70
2024/03/06 00:28:24;;;;;;;;;;;;;;;;;;5094004;28;19916;-71
2024/03/06 00:30:50;;;;;;;;;;;;;;;;;;5095214;28;20303;-71
2024/03/06 00:33:17;;;;;;;;;;;;;;;;;;5098062;28;19914;-71
2024/03/06 00:35:43;;;;;;;;;;;;;;;;;;5097758;28;20078;-71
2024/03/06 00:38:09;;;;;;;;;;;;;;;;;;5097330;28;20331;-72
2024/03/06 00:40:35;;;;;;;;;;;;;;;;;;5097618;28;20265;-71
2024/03/06 00:43:01;;;;;;;;;;;;;;;;;;5096253;28;19908;-71
2024/03/06 00:45:27;;;;;;;;;;;;;;;;;;5097066;28;19958;-71
2024/03/06 00:47:53;;;;;;;;;;;;;;;;;;5097547;28;19908;-71
2024/03/06 00:50:21;;;;;;;;;;;;;;;;;;5097842;28;20441;-71
2024/03/06 00:52:48;;;;;;;;;;;;;;;;;;5097010;28;19908;-70
2024/03/06 00:55:14;;;;;;;;;;;;;;;;;;5097413;28;19908;-70
2024/03/06 00:57:40;;;;;;;;;;;;;;;;;;5097327;28;19908;-71
2024/03/06 01:00:10;;;;;;;;;;;;;;;;;;5096891;28;19931;-71
2024/03/06 01:02:36;;;;;;;;;;;;;;;;;;5097239;28;19923;-71
2024/03/06 01:05:03;;;;;;;;;;;;;;;;;;5096824;28;19909;-71
2024/03/06 01:07:30;;;;;;;;;;;;;;;;;;5097532;28;20341;-71
2024/03/06 01:09:57;;;;;;;;;;;;;;;;;;5096879;28;20457;-70
2024/03/06 01:12:23;;;;;;;;;;;;;;;;;;5096713;28;19908;-71
2024/03/06 01:14:49;;;;;;;;;;;;;;;;;;5097147;28;19908;-71
2024/03/06 01:17:15;;;;;;;;;;;;;;;;;;5096906;28;19908;-70
2024/03/06 01:19:43;;;;;;;;;;;;;;;;;;5096549;28;20284;-71
2024/03/06 01:22:09;;;;;;;;;;;;;;;;;;5096801;28;20261;-70
2024/03/06 01:24:35;;;;;;;;;;;;;;;;;;5096816;28;20422;-71
2024/03/06 01:27:02;;;;;;;;;;;;;;;;;;5096390;28;19908;-71
2024/03/06 01:29:28;;;;;;;;;;;;;;;;;;5096662;28;19986;-71
2024/03/06 01:31:54;;;;;;;;;;;;;;;;;;5096679;28;19918;-71
2024/03/06 01:34:20;;;;;;;;;;;;;;;;;;5096218;28;19915;-71
2024/03/06 01:36:46;;;;;;;;;;;;;;;;;;5096613;28;19912;-71
2024/03/06 01:39:12;;;;;;;;;;;;;;;;;;5096538;28;20308;-71
2024/03/06 01:41:38;;;;;;;;;;;;;;;;;;5095737;28;20299;-71
2024/03/06 01:44:04;;;;;;;;;;;;;;;;;;5096997;28;20268;-71
2024/03/06 01:46:30;;;;;;;;;;;;;;;;;;5096326;28;19954;-70
2024/03/06 01:48:56;;;;;;;;;;;;;;;;;;5094568;28;19920;-71
2024/03/06 01:51:22;;;;;;;;;;;;;;;;;;5096308;28;19998;-71
2024/03/06 01:53:48;;;;;;;;;;;;;;;;;;5094955;28;19954;-71
2024/03/06 01:56:17;;;;;;;;;;;;;;;;;;5094573;28;20331;-70
2024/03/06 01:58:43;;;;;;;;;;;;;;;;;;5096202;28;19908;-71
2024/03/06 02:01:09;;;;;;;;;;;;;;;;;;5095740;28;19977;-71
2024/03/06 02:03:35;;;;;;;;;;;;;;;;;;5096067;28;19912;-71
2024/03/06 02:06:02;;;;;;;;;;;;;;;;;;5094717;28;19957;-71
2024/03/06 02:08:28;;;;;;;;;;;;;;;;;;5094074;28;19924;-71
2024/03/06 02:10:54;;;;;;;;;;;;;;;;;;5096319;28;19916;-71
2024/03/06 02:13:21;;;;;;;;;;;;;;;;;;5094907;28;19954;-70
2024/03/06 02:15:47;;;;;;;;;;;;;;;;;;5095600;28;19993;-70
2024/03/06 02:18:13;;;;;;;;;;;;;;;;;;5095860;28;19908;-70
2024/03/06 02:20:41;;;;;;;;;;;;;;;;;;5095747;28;19912;-71
2024/03/06 02:23:07;;;;;;;;;;;;;;;;;;5095323;28;19912;-70
2024/03/06 02:25:33;;;;;;;;;;;;;;;;;;5095758;28;20375;-70
2024/03/06 02:27:59;;;;;;;;;;;;;;;;;;5095747;28;20364;-71
2024/03/06 02:30:25;;;;;;;;;;;;;;;;;;5095144;28;19961;-71
2024/03/06 02:32:51;;;;;;;;;;;;;;;;;;5095496;28;19908;-70
2024/03/06 02:35:17;;;;;;;;;;;;;;;;;;5094177;28;19998;-71
2024/03/06 02:37:46;;;;;;;;;;;;;;;;;;5095134;28;19908;-71
2024/03/06 02:40:12;;;;;;;;;;;;;;;;;;5095431;28;19908;-71
2024/03/06 02:42:38;;;;;;;;;;;;;;;;;;5095344;28;19915;-71
2024/03/06 02:45:04;;;;;;;;;;;;;;;;;;5094899;28;19909;-71
2024/03/06 02:47:30;;;;;;;;;;;;;;;;;;5095257;28;19912;-71
2024/03/06 02:49:56;;;;;;;;;;;;;;;;;;5095114;28;19916;-71
2024/03/06 02:52:22;;;;;;;;;;;;;;;;;;5094343;28;19977;-71
2024/03/06 02:54:48;;;;;;;;;;;;;;;;;;5093443;28;19909;-71
2024/03/06 02:57:14;;;;;;;;;;;;;;;;;;5093692;28;19908;-71
2024/03/06 02:59:40;;;;;;;;;;;;;;;;;;5094639;28;19959;-71
2024/03/06 03:02:06;;;;;;;;;;;;;;;;;;5095222;28;19953;-71
2024/03/06 03:04:32;;;;;;;;;;;;;;;;;;5094573;28;20323;-71
2024/03/06 03:06:58;;;;;;;;;;;;;;;;;;5094829;28;19908;-71
2024/03/06 03:09:24;;;;;;;;;;;;;;;;;;5094540;28;19963;-71
2024/03/06 03:11:50;;;;;;;;;;;;;;;;;;5094410;28;19908;-71
2024/03/06 03:14:16;;;;;;;;;;;;;;;;;;5095004;28;19915;-71
2024/03/06 03:16:42;;;;;;;;;;;;;;;;;;5093440;28;20011;-71
2024/03/06 03:19:08;;;;;;;;;;;;;;;;;;5094346;28;19908;-71
2024/03/06 03:21:34;;;;;;;;;;;;;;;;;;5094673;28;20015;-71
2024/03/06 03:24:00;;;;;;;;;;;;;;;;;;5094859;28;19908;-71
2024/03/06 03:26:26;;;;;;;;;;;;;;;;;;5094159;28;19961;-71
2024/03/06 03:28:52;;;;;;;;;;;;;;;;;;5094470;28;19959;-71
2024/03/06 03:31:18;;;;;;;;;;;;;;;;;;5094362;28;19960;-71
2024/03/06 03:33:44;;;;;;;;;;;;;;;;;;5094001;28;19912;-71
2024/03/06 03:36:10;;;;;;;;;;;;;;;;;;5094310;28;19908;-71
2024/03/06 03:38:38;;;;;;;;;;;;;;;;;;5094332;28;19908;-71
2024/03/06 03:41:04;;;;;;;;;;;;;;;;;;5092626;28;20364;-71
2024/03/06 03:43:30;;;;;;;;;;;;;;;;;;5094302;28;19912;-71
2024/03/06 03:45:56;;;;;;;;;;;;;;;;;;5094186;28;19908;-71
2024/03/06 03:48:22;;;;;;;;;;;;;;;;;;5093785;28;20322;-71
2024/03/06 03:50:48;;;;;;;;;;;;;;;;;;5094061;28;19912;-71
2024/03/06 03:53:14;;;;;;;;;;;;;;;;;;5092879;28;19931;-71
2024/03/06 03:55:40;;;;;;;;;;;;;;;;;;5093900;28;19908;-71
2024/03/06 03:58:06;;;;;;;;;;;;;;;;;;5094224;28;20314;-71
2024/03/06 04:00:32;;;;;;;;;;;;;;;;;;5094104;28;19908;-71
2024/03/06 04:02:58;;;;;;;;;;;;;;;;;;5093538;28;20386;-71
2024/03/06 04:05:24;;;;;;;;;;;;;;;;;;5093803;28;20360;-71
2024/03/06 04:07:50;;;;;;;;;;;;;;;;;;5093359;28;19908;-70
2024/03/06 04:10:16;;;;;;;;;;;;;;;;;;5093868;28;19920;-71
2024/03/06 04:12:42;;;;;;;;;;;;;;;;;;5094185;28;19922;-71
2024/03/06 04:15:08;;;;;;;;;;;;;;;;;;5092190;28;20415;-71
2024/03/06 04:17:34;;;;;;;;;;;;;;;;;;5094406;28;20402;-71
2024/03/06 04:20:00;;;;;;;;;;;;;;;;;;5092604;28;19954;-71
2024/03/06 04:22:26;;;;;;;;;;;;;;;;;;5093522;28;19908;-71
2024/03/06 04:24:52;;;;;;;;;;;;;;;;;;5092475;28;19914;-71
2024/03/06 04:27:18;;;;;;;;;;;;;;;;;;5092554;28;19908;-71
2024/03/06 04:29:44;;;;;;;;;;;;;;;;;;5093270;28;20348;-71
2024/03/06 04:32:10;;;;;;;;;;;;;;;;;;5093630;28;19909;-71
2024/03/06 04:34:36;;;;;;;;;;;;;;;;;;5092402;28;19908;-71
2024/03/06 04:37:02;;;;;;;;;;;;;;;;;;5092001;28;19908;-71
2024/03/06 04:39:28;;;;;;;;;;;;;;;;;;5093782;28;19996;-72
2024/03/06 04:41:54;;;;;;;;;;;;;;;;;;5093655;28;19954;-71
2024/03/06 04:44:20;;;;;;;;;;;;;;;;;;5093420;28;19915;-71
2024/03/06 04:46:46;;;;;;;;;;;;;;;;;;5093595;28;19915;-71
2024/03/06 04:49:12;;;;;;;;;;;;;;;;;;5093613;28;19997;-71
2024/03/06 04:51:38;;;;;;;;;;;;;;;;;;5093274;28;19912;-71
2024/03/06 04:54:04;;;;;;;;;;;;;;;;;;5093468;28;19912;-71
2024/03/06 04:56:30;;;;;;;;;;;;;;;;;;5093739;28;20007;-72
2024/03/06 04:58:55;;;;;;;;;;;;;;;;;;5093089;28;20376;-71
2024/03/06 05:01:21;;;;;;;;;;;;;;;;;;5092110;28;20276;-71
2024/03/06 05:03:47;;;;;;;;;;;;;;;;;;5093371;28;19953;-71
2024/03/06 05:06:13;;;;;;;;;;;;;;;;;;5092981;28;19916;-71
2024/03/06 05:08:39;;;;;;;;;;;;;;;;;;5093113;28;19967;-71
2024/03/06 05:11:06;;;;;;;;;;;;;;;;;;5092962;28;19909;-71
2024/03/06 05:13:32;;;;;;;;;;;;;;;;;;5093340;28;19908;-71
2024/03/06 05:15:58;;;;;;;;;;;;;;;;;;5093779;28;19915;-71
2024/03/06 05:18:24;;;;;;;;;;;;;;;;;;5096650;28;19908;-73
2024/03/06 05:20:50;;;;;;;;;;;;;;;;;;5095671;28;19915;-72
2024/03/06 05:23:17;;;;;;;;;;;;;;;;;;5097076;28;19908;-70
2024/03/06 05:25:43;;;;;;;;;;;;;;;;;;5096433;28;19908;-71
2024/03/06 05:28:09;;;;;;;;;;;;;;;;;;5095471;28;19914;-71
2024/03/06 05:30:35;;;;;;;;;;;;;;;;;;5096666;28;19916;-72
2024/03/06 05:33:01;;;;;;;;;;;;;;;;;;5096295;28;19908;-72
2024/03/06 05:35:27;;;;;;;;;;;;;;;;;;5095374;28;20287;-73
2024/03/06 05:37:53;;;;;;;;;;;;;;;;;;5096922;28;19944;-72
2024/03/06 05:40:19;;;;;;;;;;;;;;;;;;5094887;28;19931;-73
2024/03/06 05:42:45;;;;;;;;;;;;;;;;;;5096706;28;19912;-70
2024/03/06 05:45:12;;;;;;;;;;;;;;;;;;5096443;28;20413;-70
2024/03/06 05:47:38;;;;;;;;;;;;;;;;;;5096008;28;19929;-70
2024/03/06 05:50:04;;;;;;;;;;;;;;;;;;5096284;28;19920;-70
2024/03/06 05:52:30;;;;;;;;;;;;;;;;;;5096275;28;19916;-70
2024/03/06 05:54:56;;;;;;;;;;;;;;;;;;5095759;28;19908;-69
2024/03/06 05:57:22;;;;;;;;;;;;;;;;;;5096485;28;19961;-70
2024/03/06 05:59:48;;;;;;;;;;;;;;;;;;5095832;28;19908;-70
2024/03/06 06:02:16;;;;;;;;;;;;;;;;;;5094492;28;19908;-71
2024/03/06 06:04:42;;;;;;;;;;;;;;;;;;5096063;28;19914;-69
2024/03/06 06:07:08;;;;;;;;;;;;;;;;;;5094088;28;19909;-69
2024/03/06 06:09:34;;;;;;;;;;;;;;;;;;5094533;28;19920;-71
2024/03/06 06:12:00;;;;;;;;;;;;;;;;;;5095084;28;19923;-70
2024/03/06 06:14:29;;;;;;;;;;;;;;;;;;5093135;28;20007;-70
2024/03/06 06:16:55;;;;;;;;;;;;;;;;;;5093939;28;20250;-70
2024/03/06 06:19:21;;;;;;;;;;;;;;;;;;5094706;28;19915;-70
2024/03/06 06:21:47;;;;;;;;;;;;;;;;;;5104366;28;19916;-70
2024/03/06 06:24:13;;;;;;;;;;;;;;;;;;5093595;28;20016;-71
2024/03/06 06:26:39;;;;;;;;;;;;;;;;;;5102168;28;19998;-71
2024/03/06 06:29:05;;;;;;;;;;;;;;;;;;5096576;28;20313;-71
2024/03/06 06:31:31;;;;;;;;;;;;;;;;;;5092408;27;19934;-70
2024/03/06 06:33:57;;;;;;;;;;;;;;;;;;5102092;28;19915;-72
2024/03/06 06:36:23;;;;;;;;;;;;;;;;;;5097950;28;19976;-72
2024/03/06 06:38:49;;;;;;;;;;;;;;;;;;5103308;28;19908;-68
2024/03/06 06:41:15;;;;;;;;;;;;;;;;;;5102714;28;19915;-68
2024/03/06 06:43:41;;;;;;;;;;;;;;;;;;5096403;28;19916;-68
2024/03/06 06:46:07;;;;;;;;;;;;;;;;;;5099818;28;19912;-70
2024/03/06 06:48:33;;;;;;;;;;;;;;;;;;5095964;28;19939;-69
2024/03/06 06:51:00;;;;;;;;;;;;;;;;;;5100050;28;19927;-68
2024/03/06 06:53:26;;;;;;;;;;;;;;;;;;5086992;28;20578;-69
2024/03/06 06:55:52;;;;;;;;;;;;;;;;;;5090847;28;19916;-71
2024/03/06 06:58:20;;;;;;;;;;;;;;;;;;5097539;28;20006;-67
2024/03/06 07:00:46;;;;;;;;;;;;;;;;;;5098076;28;19912;-68
2024/03/06 07:03:12;;;;;;;;;;;;;;;;;;5095685;28;19920;-68
2024/03/06 07:05:38;;;;;;;;;;;;;;;;;;5104681;28;20049;-68
2024/03/06 07:08:04;;;;;;;;;;;;;;;;;;5103236;28;19912;-68
2024/03/06 07:10:30;;;;;;;;;;;;;;;;;;5105349;28;19927;-69
2024/03/06 07:12:56;;;;;;;;;;;;;;;;;;5103631;28;19920;-69
2024/03/06 07:15:22;;;;;;;;;;;;;;;;;;5106899;28;19952;-71
2024/03/06 07:17:48;;;;;;;;;;;;;;;;;;5113681;28;19908;-70
2024/03/06 07:20:14;;;;;;;;;;;;;;;;;;5098626;28;19934;-69
2024/03/06 07:22:41;;;;;;;;;;;;;;;;;;5097626;28;19912;-70
2024/03/06 07:25:07;;;;;;;;;;;;;;;;;;5101451;28;20010;-69
2024/03/06 07:27:33;;;;;;;;;;;;;;;;;;5110733;28;19970;-69
2024/03/06 07:29:59;;;;;;;;;;;;;;;;;;5099646;28;19920;-70
2024/03/06 07:32:25;;;;;;;;;;;;;;;;;;5103815;28;19908;-71
2024/03/06 07:34:51;;;;;;;;;;;;;;;;;;5098085;28;19986;-68
2024/03/06 07:37:17;;;;;;;;;;;;;;;;;;5105173;28;19915;-69
2024/03/06 07:39:43;;;;;;;;;;;;;;;;;;5100288;28;19916;-72
2024/03/06 07:42:10;;;;;;;;;;;;;;;;;;5101152;28;19926;-68
2024/03/06 07:44:36;;;;;;;;;;;;;;;;;;5105431;28;19920;-69
2024/03/06 07:47:02;;;;;;;;;;;;;;;;;;5098614;28;20417;-69
2024/03/06 07:49:28;;;;;;;;;;;;;;;;;;5104255;28;19922;-69
2024/03/06 07:51:54;;;;;;;;;;;;;;;;;;5099654;28;19991;-68
2024/03/06 07:54:20;;;;;;;;;;;;;;;;;;5098272;28;19916;-71
2024/03/06 07:56:46;;;;;;;;;;;;;;;;;;5091153;28;20200;-71
2024/03/06 07:59:12;;;;;;;;;;;;;;;;;;5098818;28;19911;-71
2024/03/06 08:01:38;;;;;;;;;;;;;;;;;;5129832;27;19920;-71
2024/03/06 08:04:04;;;;;;;;;;;;;;;;;;5104256;28;19914;-71
2024/03/06 08:06:31;;;;;;;;;;;;;;;;;;5102917;28;19908;-71
2024/03/06 08:08:57;;;;;;;;;;;;;;;;;;5102438;28;19980;-71
2024/03/06 08:11:24;;;;;;;;;;;;;;;;;;5095503;28;20012;-71
2024/03/06 08:13:50;;;;;;;;;;;;;;;;;;5088049;28;20581;-71
2024/03/06 08:16:17;;;;;;;;;;;;;;;;;;5088932;28;19912;-71
2024/03/06 08:18:43;;;;;;;;;;;;;;;;;;5089004;28;19912;-71
2024/03/06 08:21:09;;;;;;;;;;;;;;;;;;5115829;27;19923;-70
2024/03/06 08:23:35;;;;;;;;;;;;;;;;;;5074754;28;19909;-71
2024/03/06 08:26:01;;;;;;;;;;;;;;;;;;5070075;28;19915;-72
2024/03/06 08:28:27;;;;;;;;;;;;;;;;;;5075670;28;20007;-71
2024/03/06 08:30:53;;;;;;;;;;;;;;;;;;5089658;28;19935;-68
2024/03/06 08:33:21;;;;;;;;;;;;;;;;;;5092463;28;20002;-69
2024/03/06 08:35:46;;;;;;;;;;;;;;;;;;5088240;28;19912;-68
2024/03/06 08:38:12;;;;;;;;;;;;;;;;;;5089063;28;19908;-71
2024/03/06 08:40:39;;;;;;;;;;;;;;;;;;5089346;28;19908;-68
2024/03/06 08:43:04;;;;;;;;;;;;;;;;;;5090820;28;19908;-69
2024/03/06 08:45:30;;;;;;;;;;;;;;;;;;5094484;28;19908;-68
2024/03/06 08:47:56;;;;;;;;;;;;;;;;;;5092760;28;19912;-69
2024/03/06 08:50:22;;;;;;;;;;;;;;;;;;5092266;28;20416;-69
2024/03/06 08:52:48;;;;;;;;;;;;;;;;;;5096399;28;19915;-70
2024/03/06 08:55:14;;;;;;;;;;;;;;;;;;5095494;28;19908;-70
2024/03/06 08:57:40;;;;;;;;;;;;;;;;;;5094020;28;19912;-70
2024/03/06 09:00:10;;;;;;;;;;;;;;;;;;5100541;28;19912;-69
2024/03/06 09:02:36;;;;;;;;;;;;;;;;;;5114872;28;20284;-70
2024/03/06 09:05:04;;;;;;;;;;;;;;;;;;5115243;28;19908;-68
2024/03/06 09:07:30;;;;;;;;;;;;;;;;;;5108427;28;19916;-68
2024/03/06 09:09:56;;;;;;;;;;;;;;;;;;5092722;28;20069;-68
2024/03/06 09:12:22;;;;;;;;;;;;;;;;;;5090690;28;19916;-69
2024/03/06 09:14:48;;;;;;;;;;;;;;;;;;5094724;28;19964;-67
2024/03/06 09:17:14;;;;;;;;;;;;;;;;;;5092849;28;19912;-68
2024/03/06 09:19:40;;;;;;;;;;;;;;;;;;5092483;28;20420;-69
2024/03/06 09:22:07;;;;;;;;;;;;;;;;;;5087767;28;20042;-70
2024/03/06 09:24:33;;;;;;;;;;;;;;;;;;5095559;28;19962;-69
2024/03/06 09:26:59;;;;;;;;;;;;;;;;;;5098269;28;19908;-70
2024/03/06 09:29:25;;;;;;;;;;;;;;;;;;5091481;28;20360;-68
2024/03/06 09:31:50;;;;;;;;;;;;;;;;;;5089218;28;20265;-69
2024/03/06 09:34:17;;;;;;;;;;;;;;;;;;5074267;28;20284;-69
2024/03/06 09:36:44;;;;;;;;;;;;;;;;;;5084373;28;19912;-69
2024/03/06 09:39:10;;;;;;;;;;;;;;;;;;5108044;28;19920;-69
2024/03/06 09:41:37;;;;;;;;;;;;;;;;;;5112503;28;19983;-68
2024/03/06 09:44:03;;;;;;;;;;;;;;;;;;5096019;28;19938;-70
2024/03/06 09:46:29;;;;;;;;;;;;;;;;;;5104506;28;19912;-69
2024/03/06 09:48:55;;;;;;;;;;;;;;;;;;5094550;28;19930;-70
2024/03/06 09:51:21;;;;;;;;;;;;;;;;;;5094133;28;20368;-68
2024/03/06 09:55:15;;;;;;;;;;;;;;;;;;5143731;27;19915;-68
2024/03/06 09:57:40;;;;;;;;;;;;;;;;;;5126610;28;19919;-70
2024/03/06 10:00:07;;;;;;;;;;;;;;;;;;5112859;28;20035;-70
2024/03/06 10:04:21;;;;;;;;;;;;;;;;;;5089139;27;19924;-68
2024/03/06 10:08:04;;;;;;;;;;;;;;;;;;5077403;27;19926;-69
2024/03/06 10:10:30;;;;;;;;;;;;;;;;;;5081400;28;20458;-69
2024/03/06 10:13:22;;;;;;;;;;;;;;;;;;5087867;27;19920;-71
2024/03/06 10:15:48;;;;;;;;;;;;;;;;;;5087173;28;20234;-70
2024/03/06 10:18:14;;;;;;;;;;;;;;;;;;5088454;28;19953;-69
2024/03/06 10:23:02;;;;;;;;;;;;;;;;;;5089418;27;19927;-70
2024/03/06 10:25:28;;;;;;;;;;;;;;;;;;5077062;28;19912;-70
2024/03/06 10:28:36;;;;;;;;;;;;;;;;;;5055129;28;20349;-70
2024/03/06 10:31:02;;;;;;;;;;;;;;;;;;5049120;28;19987;-70
2024/03/06 10:33:29;;;;;;;;;;;;;;;;;;5038992;28;20346;-70
2024/03/06 10:35:54;;;;;;;;;;;;;;;;;;5054694;28;19940;-70
2024/03/06 10:38:49;;;;;;;;;;;;;;;;;;5077587;27;19925;-68
2024/03/06 10:41:15;;;;;;;;;;;;;;;;;;5078100;28;19919;-68
2024/03/06 10:43:41;;;;;;;;;;;;;;;;;;5078449;28;20019;-69
2024/03/06 10:47:50;;;;;;;;;;;;;;;;;;5166037;27;19923;-71
2024/03/06 10:50:16;;;;;;;;;;;;;;;;;;5137237;27;19911;-72
2024/03/06 10:52:42;;;;;;;;;;;;;;;;;;5167004;27;20339;-73
2024/03/06 10:58:40;;;;;;;;;;;;;;;;;;5087855;28;19922;-71
2024/03/06 11:01:06;;;;;;;;;;;;;;;;;;5063509;28;20003;-70
2024/03/06 11:07:44;;;;;;;;;;;;;;;;;;5130197;27;19915;-72
2024/03/06 11:12:06;;;;;;;;;;;;;;;;;;5112020;27;19920;-70
2024/03/06 11:14:32;;;;;;;;;;;;;;;;;;5101255;28;20622;-69
2024/03/06 11:18:33;;;;;;;;;;;;;;;;;;5076610;27;19927;-68
2024/03/06 11:22:03;;;;;;;;;;;;;;;;;;5080552;27;20296;-70
2024/03/06 11:24:28;;;;;;;;;;;;;;;;;;5092595;28;20003;-69
2024/03/06 11:32:53;;;;;;;;;;;;;;;;;;5088167;27;19917;-83
2024/03/06 11:36:32;;;;;;;;;;;;;;;;;;5083855;27;19916;-75
2024/03/06 11:39:00;;;;;;;;;;;;;;;;;;5066804;28;19916;-69
2024/03/06 11:41:26;;;;;;;;;;;;;;;;;;5062670;28;20004;-68
2024/03/06 11:43:53;;;;;;;;;;;;;;;;;;5076344;28;20292;-68
2024/03/06 11:46:19;;;;;;;;;;;;;;;;;;5060683;28;20293;-69
2024/03/06 11:49:05;;;;;;;;;;;;;;;;;;5082711;27;19981;-66
2024/03/06 11:51:31;;;;;;;;;;;;;;;;;;5065204;28;19924;-67
2024/03/06 11:53:57;;;;;;;;;;;;;;;;;;5065711;28;19913;-67
2024/03/06 11:56:23;;;;;;;;;;;;;;;;;;5070171;28;20328;-68
2024/03/06 11:58:49;;;;;;;;;;;;;;;;;;5064510;28;19966;-68
2024/03/06 12:02:12;;;;;;;;;;;;;;;;;;5086995;28;19923;-68
2024/03/06 12:07:07;;;;;;;;;;;;;;;;;;5080149;27;19924;-66
2024/03/06 12:12:54;;;;;;;;;;;;;;;;;;5108433;27;19924;-70
2024/03/06 12:15:20;;;;;;;;;;;;;;;;;;5105451;28;19919;-70
2024/03/06 12:17:47;;;;;;;;;;;;;;;;;;5103084;28;20225;-68
2024/03/06 12:20:15;;;;;;;;;;;;;;;;;;5122181;28;19947;-71
2024/03/06 12:22:41;;;;;;;;;;;;;;;;;;5116557;28;19916;-68
2024/03/06 12:25:20;;;;;;;;;;;;;;;;;;5149937;27;19911;-68
2024/03/06 12:27:46;;;;;;;;;;;;;;;;;;5151679;27;19911;-67
2024/03/06 12:31:57;;;;;;;;;;;;;;;;;;5090163;27;19916;-72
2024/03/06 12:35:42;;;;;;;;;;;;;;;;;;5090319;27;20022;-69
2024/03/06 12:38:08;;;;;;;;;;;;;;;;;;5090287;28;19998;-70
2024/03/06 12:43:02;;;;;;;;;;;;;;;;;;5123334;27;19922;-69
2024/03/06 12:45:28;;;;;;;;;;;;;;;;;;5108298;28;20003;-70
2024/03/06 12:49:54;;;;;;;;;;;;;;;;;;5139552;27;20372;-69
2024/03/06 12:52:20;;;;;;;;;;;;;;;;;;5127582;28;19943;-71
2024/03/06 12:54:46;;;;;;;;;;;;;;;;;;5129956;28;20302;-70
2024/03/06 12:57:12;;;;;;;;;;;;;;;;;;5131087;28;19912;-70
2024/03/06 12:59:38;;;;;;;;;;;;;;;;;;5131379;28;19908;-70
2024/03/06 13:02:04;;;;;;;;;;;;;;;;;;5131088;28;19915;-70
2024/03/06 13:04:30;;;;;;;;;;;;;;;;;;5110968;28;19908;-69
2024/03/06 13:06:57;;;;;;;;;;;;;;;;;;5128852;28;20023;-69
2024/03/06 13:09:24;;;;;;;;;;;;;;;;;;5127816;28;19915;-69
2024/03/06 13:11:50;;;;;;;;;;;;;;;;;;5109725;28;19960;-70
2024/03/06 13:14:16;;;;;;;;;;;;;;;;;;5109311;28;20019;-71
2024/03/06 13:16:42;;;;;;;;;;;;;;;;;;5127051;28;20003;-70
2024/03/06 13:19:08;;;;;;;;;;;;;;;;;;5127211;28;19915;-70
2024/03/06 13:21:34;;;;;;;;;;;;;;;;;;5126146;28;19908;-70
2024/03/06 13:24:00;;;;;;;;;;;;;;;;;;5109499;28;19908;-69
2024/03/06 13:26:26;;;;;;;;;;;;;;;;;;5128150;28;19915;-70
2024/03/06 13:28:52;;;;;;;;;;;;;;;;;;5110391;28;19920;-69
2024/03/06 13:31:18;;;;;;;;;;;;;;;;;;5130403;28;20406;-68
2024/03/06 13:33:44;;;;;;;;;;;;;;;;;;5130834;28;19908;-69
2024/03/06 13:36:10;;;;;;;;;;;;;;;;;;5130783;28;19907;-68
2024/03/06 13:38:36;;;;;;;;;;;;;;;;;;5130042;28;19998;-69
2024/03/06 13:41:02;;;;;;;;;;;;;;;;;;5129553;28;19916;-69
2024/03/06 13:43:28;;;;;;;;;;;;;;;;;;5125271;28;19915;-70
2024/03/06 13:45:54;;;;;;;;;;;;;;;;;;5111867;28;20321;-69
2024/03/06 13:48:22;;;;;;;;;;;;;;;;;;5129405;28;19920;-69
2024/03/06 13:50:48;;;;;;;;;;;;;;;;;;5128053;28;19912;-69
2024/03/06 13:55:02;;;;;;;;;;;;;;;;;;5151651;27;19918;-69
2024/03/06 13:57:28;;;;;;;;;;;;;;;;;;5151820;27;20348;-70
2024/03/06 14:00:31;;;;;;;;;;;;;;;;;;5089785;28;19912;-69
2024/03/06 14:02:57;;;;;;;;;;;;;;;;;;5090317;28;20019;-70
2024/03/06 14:07:52;;;;;;;;;;;;;;;;;;5090901;27;19916;-70
2024/03/06 14:12:52;;;;;;;;;;;;;;;;;;5070054;28;20636;-71
2024/03/06 14:15:18;;;;;;;;;;;;;;;;;;5070864;28;19912;-71
2024/03/06 14:17:44;;;;;;;;;;;;;;;;;;5070913;28;19909;-71
2024/03/06 14:20:12;;;;;;;;;;;;;;;;;;5063257;28;19966;-72
2024/03/06 14:24:52;;;;;;;;;;;;;;;;;;5090871;27;19916;-70
2024/03/06 14:27:18;;;;;;;;;;;;;;;;;;5090605;28;20003;-70
2024/03/06 14:29:44;;;;;;;;;;;;;;;;;;5091091;28;19916;-72
2024/03/06 14:32:11;;;;;;;;;;;;;;;;;;5090888;28;20410;-70
2024/03/06 14:34:37;;;;;;;;;;;;;;;;;;5090327;28;19915;-71
2024/03/06 14:37:03;;;;;;;;;;;;;;;;;;5091112;28;19908;-71
2024/03/06 14:39:29;;;;;;;;;;;;;;;;;;5090775;28;20376;-71
2024/03/06 14:41:54;;;;;;;;;;;;;;;;;;5089982;28;19908;-71
2024/03/06 14:44:20;;;;;;;;;;;;;;;;;;5090231;28;19917;-71
2024/03/06 14:46:46;;;;;;;;;;;;;;;;;;5090504;28;20007;-71
2024/03/06 14:49:14;;;;;;;;;;;;;;;;;;5089892;28;19924;-70
2024/03/06 14:51:40;;;;;;;;;;;;;;;;;;5090306;28;20356;-70
2024/03/06 14:54:06;;;;;;;;;;;;;;;;;;5090451;28;19915;-71
2024/03/06 15:00:20;;;;;;;;;;;;;;;;;;5089267;27;19934;-70
2024/03/06 15:02:46;;;;;;;;;;;;;;;;;;5086259;28;20372;-70
2024/03/06 15:05:12;;;;;;;;;;;;;;;;;;5081871;28;19915;-71
2024/03/06 15:07:38;;;;;;;;;;;;;;;;;;5090349;28;20391;-71
2024/03/06 15:10:04;;;;;;;;;;;;;;;;;;5090049;28;19934;-71
2024/03/06 15:12:30;;;;;;;;;;;;;;;;;;5090164;28;19915;-72
2024/03/06 15:14:57;;;;;;;;;;;;;;;;;;5090110;28;19912;-72
2024/03/06 15:17:25;;;;;;;;;;;;;;;;;;5088675;28;19908;-72
2024/03/06 15:19:51;;;;;;;;;;;;;;;;;;5090435;28;19961;-72
2024/03/06 15:24:31;;;;;;;;;;;;;;;;;;5090835;27;19919;-70
2024/03/06 15:26:57;;;;;;;;;;;;;;;;;;5091279;28;19919;-71
2024/03/06 15:33:20;;;;;;;;;;;;;;;;;;5091516;28;19917;-72
2024/03/06 15:37:56;;;;;;;;;;;;;;;;;;5111010;27;19923;-71
2024/03/06 15:40:22;;;;;;;;;;;;;;;;;;5111283;28;20003;-72
2024/03/06 15:45:31;;;;;;;;;;;;;;;;;;5089266;27;19917;-71
2024/03/06 15:54:40;;;;;;;;;;;;;;;;;;5071129;28;19919;-72
2024/03/06 15:57:09;;;;;;;;;;;;;;;;;;5070907;28;20429;-71
2024/03/06 15:59:35;;;;;;;;;;;;;;;;;;5070675;28;20047;-71
2024/03/06 16:02:01;;;;;;;;;;;;;;;;;;5070836;28;19948;-71
2024/03/06 16:06:59;;;;;;;;;;;;;;;;;;5090864;27;19912;-71
2024/03/06 16:09:25;;;;;;;;;;;;;;;;;;5090940;28;19912;-71
2024/03/06 16:11:51;;;;;;;;;;;;;;;;;;5090989;28;20341;-71
2024/03/06 16:14:17;;;;;;;;;;;;;;;;;;5085579;28;20015;-72
2024/03/06 16:16:43;;;;;;;;;;;;;;;;;;5085912;28;19999;-71
2024/03/06 16:19:09;;;;;;;;;;;;;;;;;;5083849;28;20432;-71
2024/03/06 16:21:36;;;;;;;;;;;;;;;;;;5086823;28;20010;-71
2024/03/06 16:24:03;;;;;;;;;;;;;;;;;;5087510;28;19915;-72
2024/03/06 16:26:30;;;;;;;;;;;;;;;;;;5086513;28;20031;-71
2024/03/06 16:28:56;;;;;;;;;;;;;;;;;;5086542;28;19955;-71
2024/03/06 16:34:53;;;;;;;;;;;;;;;;;;5086930;27;20308;-72
2024/03/06 16:37:19;;;;;;;;;;;;;;;;;;5086943;28;20380;-72
2024/03/06 16:39:47;;;;;;;;;;;;;;;;;;5087365;28;19908;-72
2024/03/06 16:42:13;;;;;;;;;;;;;;;;;;5088038;28;19912;-71
2024/03/06 16:44:41;;;;;;;;;;;;;;;;;;5087006;28;19995;-73
2024/03/06 16:47:08;;;;;;;;;;;;;;;;;;5086537;28;19920;-71
2024/03/06 16:49:34;;;;;;;;;;;;;;;;;;5086085;28;19952;-71
2024/03/06 16:52:00;;;;;;;;;;;;;;;;;;5086633;28;20407;-70
2024/03/06 16:54:26;;;;;;;;;;;;;;;;;;5086672;28;20288;-70
2024/03/06 16:56:52;;;;;;;;;;;;;;;;;;5086973;28;20374;-71
2024/03/06 16:59:27;;;;;;;;;;;;;;;;;;5087012;27;19923;-71
2024/03/06 17:01:53;;;;;;;;;;;;;;;;;;5089824;28;19916;-70
2024/03/06 17:04:19;;;;;;;;;;;;;;;;;;5090496;28;19913;-71
2024/03/06 17:06:45;;;;;;;;;;;;;;;;;;5088918;28;19908;-73
2024/03/06 17:09:11;;;;;;;;;;;;;;;;;;5088364;28;20296;-71
2024/03/06 17:11:37;;;;;;;;;;;;;;;;;;5088736;28;19952;-72
2024/03/06 17:14:03;;;;;;;;;;;;;;;;;;5088690;28;19909;-71
2024/03/06 17:16:29;;;;;;;;;;;;;;;;;;5089590;28;19908;-72
2024/03/06 17:18:55;;;;;;;;;;;;;;;;;;5088864;28;19920;-71
2024/03/06 17:21:21;;;;;;;;;;;;;;;;;;5090351;28;19988;-71
2024/03/06 17:23:50;;;;;;;;;;;;;;;;;;5089547;28;19909;-72
2024/03/06 17:26:16;;;;;;;;;;;;;;;;;;5088993;28;19914;-71
2024/03/06 17:28:42;;;;;;;;;;;;;;;;;;5090224;28;19997;-71
2024/03/06 17:31:08;;;;;;;;;;;;;;;;;;5089956;28;19908;-71
2024/03/06 17:33:34;;;;;;;;;;;;;;;;;;5090312;28;19908;-72
2024/03/06 17:36:00;;;;;;;;;;;;;;;;;;5088511;28;19931;-72
2024/03/06 17:38:27;;;;;;;;;;;;;;;;;;5089869;28;19970;-71
2024/03/06 17:40:53;;;;;;;;;;;;;;;;;;5089970;28;19915;-72
2024/03/06 17:43:19;;;;;;;;;;;;;;;;;;5090030;28;19995;-73
2024/03/06 17:45:45;;;;;;;;;;;;;;;;;;5090698;28;19916;-72
2024/03/06 17:48:11;;;;;;;;;;;;;;;;;;5090390;28;19978;-72
2024/03/06 17:50:37;;;;;;;;;;;;;;;;;;5090231;28;20314;-71
2024/03/06 17:53:04;;;;;;;;;;;;;;;;;;5090789;28;19992;-71
2024/03/06 17:55:30;;;;;;;;;;;;;;;;;;5090847;28;19908;-71
2024/03/06 17:57:56;;;;;;;;;;;;;;;;;;5089047;28;19935;-70
2024/03/06 18:00:22;;;;;;;;;;;;;;;;;;5090082;28;19961;-71